createdAt,value
2017-07-02T20:04:45.439Z,98564.20
2017-07-02T20:07:12.935Z,98556.53
2017-07-02T20:09:41.868Z,98562.41
2017-07-02T20:12:09.432Z,98562.06
2017-07-02T20:14:36.891Z,98574.95
2017-07-02T20:17:04.351Z,98576.05
2017-07-02T20:19:31.865Z,98572.76
2017-07-02T20:21:59.323Z,98575.41
2017-07-02T20:24:26.818Z,98577.94
2017-07-02T20:26:54.338Z,98573.63
2017-07-02T20:29:21.806Z,98581.84
2017-07-02T20:31:49.265Z,98589.39
2017-07-02T20:34:16.785Z,98591.08
2017-07-02T20:36:44.246Z,98590.40
2017-07-02T20:39:11.711Z,98581.51
2017-07-02T20:41:39.226Z,98589.13
2017-07-02T20:44:06.686Z,98587.52
2017-07-02T20:46:34.147Z,98593.11
2017-07-02T20:49:01.663Z,98591.50
2017-07-02T20:51:29.113Z,98591.28
2017-07-02T20:56:23.390Z,98596.88
2017-07-02T20:58:50.854Z,98595.72
2017-07-02T21:01:18.328Z,98604.23
2017-07-02T21:03:45.963Z,98605.20
2017-07-02T21:06:13.487Z,98606.17
2017-07-02T21:08:40.943Z,98599.75
2017-07-02T21:11:08.409Z,98610.38
2017-07-02T21:13:35.905Z,98596.52
2017-07-02T21:16:03.357Z,98594.70
2017-07-02T21:18:30.846Z,98599.02
2017-07-02T21:20:58.367Z,98594.49
2017-07-02T21:23:25.835Z,98598.39
2017-07-02T21:25:53.289Z,98598.33
2017-07-02T21:28:20.793Z,98597.48
2017-07-02T21:30:48.291Z,98600.41
2017-07-02T21:33:15.832Z,98590.59
2017-07-02T21:35:43.398Z,98601.73
2017-07-02T21:38:10.855Z,98602.77
2017-07-02T21:40:38.319Z,98597.66
2017-07-02T21:43:05.832Z,98603.33
2017-07-02T21:45:33.416Z,98599.10
2017-07-02T21:48:00.881Z,98600.25
2017-07-02T21:50:28.385Z,98594.31
2017-07-02T21:52:55.883Z,98603.05
2017-07-02T21:55:23.661Z,98602.06
2017-07-02T21:57:51.139Z,98600.01
2017-07-02T22:00:18.641Z,98597.87
2017-07-02T22:02:46.102Z,98597.68
2017-07-02T22:05:13.637Z,98600.58
2017-07-02T22:07:41.137Z,98600.91
2017-07-02T22:10:08.598Z,98595.85
2017-07-02T22:12:36.104Z,98603.37
2017-07-02T22:15:03.617Z,98609.48
2017-07-02T22:17:31.086Z,98605.81
2017-07-02T22:19:58.542Z,98606.23
2017-07-02T22:22:26.077Z,98609.16
2017-07-02T22:24:53.550Z,98613.03
2017-07-02T22:27:21.058Z,98609.22
2017-07-02T22:29:48.520Z,98611.22
2017-07-02T22:32:15.993Z,98605.51
2017-07-02T22:34:43.505Z,98611.24
2017-07-02T22:37:10.974Z,98613.20
2017-07-02T22:39:38.442Z,98616.92
2017-07-02T22:42:05.938Z,98612.99
2017-07-02T22:44:33.397Z,98614.65
2017-07-02T22:47:00.893Z,98612.78
2017-07-02T22:49:28.604Z,98618.40
2017-07-02T22:51:56.106Z,98621.87
2017-07-02T22:54:23.723Z,98618.97
2017-07-02T22:56:51.185Z,98613.30
2017-07-02T22:59:18.655Z,98616.77
2017-07-02T23:01:46.165Z,98625.04
2017-07-02T23:04:13.625Z,98626.09
2017-07-02T23:06:41.081Z,98631.28
2017-07-02T23:09:08.581Z,98634.13
2017-07-02T23:11:36.050Z,98642.00
2017-07-02T23:14:03.766Z,98639.71
2017-07-02T23:16:31.217Z,98646.92
2017-07-02T23:18:58.679Z,98642.06
2017-07-02T23:21:26.166Z,98646.77
2017-07-02T23:23:53.638Z,98645.98
2017-07-02T23:26:21.094Z,98652.14
2017-07-02T23:28:48.597Z,98644.55
2017-07-02T23:31:16.061Z,98650.91
2017-07-02T23:33:43.522Z,98656.12
2017-07-02T23:36:11.032Z,98654.22
2017-07-02T23:38:38.497Z,98656.45
2017-07-02T23:41:05.953Z,98662.28
2017-07-02T23:43:33.458Z,98667.65
2017-07-02T23:46:00.910Z,98664.68
2017-07-02T23:48:28.362Z,98669.17
2017-07-02T23:50:55.891Z,98677.73
2017-07-02T23:53:23.346Z,98675.23
2017-07-02T23:55:50.807Z,98675.25
2017-07-02T23:58:18.307Z,98672.89
